Time;durP1;ratioP1;P1;durP2;ratioP2;P2;SDS_P1;SDS_P2;PMS_P1;PMS_P2;Temp;Humidity;BMP_temperature;BMP_pressure;BME280_temperature;BME280_humidity;BME280_pressure;Samples;Min_cycle;Max_cycle;Signal;HPM_P1;HPM_P2
2024/01/10 00:02:21;;;;;;;6.32;3.22;;;14.60;33.90;;;;;;6062955;22;45306;-51
2024/01/10 00:05:23;;;;;;;5.60;3.33;;;14.60;34.00;;;;;;6067416;22;45335;-51
2024/01/10 00:08:12;;;;;;;6.00;3.33;;;14.60;33.90;;;;;;6067878;22;46143;-51
2024/01/10 00:10:55;;;;;;;5.20;3.00;;;14.60;34.00;;;;;;6067425;22;45351;-51
2024/01/10 00:13:22;;;;;;;5.82;3.40;;;14.60;33.90;;;;;;6074910;22;45336;-52
2024/01/10 00:19:25;;;;;;;5.57;3.42;;;14.60;33.30;;;;;;6000098;22;45280;-51
2024/01/10 00:21:52;;;;;;;4.50;3.08;;;14.60;33.30;;;;;;6057582;22;45453;-51
2024/01/10 00:24:49;;;;;;;4.93;2.83;;;14.60;32.90;;;;;;6060242;22;45363;-52
2024/01/10 00:27:50;;;;;;;4.72;3.15;;;14.60;33.30;;;;;;6120817;22;45294;-51
2024/01/10 00:30:17;;;;;;;5.00;2.95;;;14.60;32.90;;;;;;6052432;22;46226;-51
2024/01/10 00:32:50;;;;;;;5.47;3.17;;;14.60;33.20;;;;;;6060769;22;45143;-51
2024/01/10 00:35:24;;;;;;;5.10;3.03;;;14.60;33.00;;;;;;6093982;22;45244;-52
2024/01/10 00:37:53;;;;;;;5.72;3.53;;;14.60;33.10;;;;;;6101856;22;45222;-52
2024/01/10 00:40:55;;;;;;;4.93;3.20;;;14.60;33.40;;;;;;6067173;22;45895;-51
2024/01/10 00:43:23;;;;;;;4.88;3.22;;;14.60;33.10;;;;;;6059349;22;44960;-52
2024/01/10 00:46:19;;;;;;;5.65;3.28;;;14.70;33.40;;;;;;6062684;22;45277;-51
2024/01/10 00:48:57;;;;;;;5.57;2.83;;;14.60;33.00;;;;;;6071341;22;45441;-51
2024/01/10 00:51:25;;;;;;;5.85;3.35;;;14.60;33.40;;;;;;6061397;22;46426;-51
2024/01/10 00:54:04;;;;;;;4.40;2.70;;;14.60;33.00;;;;;;6056924;22;45273;-52
2024/01/10 00:56:31;;;;;;;6.10;3.28;;;14.60;31.70;;;;;;6051242;22;45119;-51
2024/01/10 00:59:12;;;;;;;7.05;3.17;;;14.50;29.90;;;;;;6060679;22;45362;-52
2024/01/10 01:02:17;;;;;;;5.57;3.20;;;14.50;30.20;;;;;;6075825;22;45118;-51
2024/01/10 01:04:43;;;;;;;6.93;3.40;;;14.50;32.30;;;;;;6047244;22;45374;-51
2024/01/10 01:10:26;;;;;;;5.57;3.42;;;14.50;30.20;;;;;;6053319;22;45236;-51
2024/01/10 01:12:53;;;;;;;7.10;3.58;;;14.50;29.50;;;;;;6054658;22;47411;-51
2024/01/10 01:15:44;;;;;;;6.05;3.50;;;14.50;29.80;;;;;;6076142;22;45531;-51
2024/01/10 01:18:50;;;;;;;6.38;3.25;;;14.50;29.90;;;;;;6089590;22;45267;-51
2024/01/10 01:21:38;;;;;;;6.00;3.08;;;14.50;29.30;;;;;;6064822;22;44732;-51
2024/01/10 01:24:14;;;;;;;5.13;3.28;;;14.50;29.20;;;;;;6079526;22;47131;-51
2024/01/10 01:27:13;;;;;;;5.43;3.03;;;14.50;29.20;;;;;;6097061;22;45292;-51
2024/01/10 01:29:42;;;;;;;6.00;3.70;;;14.50;29.00;;;;;;6075566;22;45125;-52
2024/01/10 01:32:31;;;;;;;5.93;3.17;;;14.50;29.10;;;;;;6079459;22;45274;-51
2024/01/10 01:35:22;;;;;;;4.68;2.97;;;14.40;29.20;;;;;;6080572;22;46734;-51
2024/01/10 01:38:10;;;;;;;7.40;3.78;;;14.40;28.90;;;;;;6067605;22;45208;-51
2024/01/10 01:40:55;;;;;;;5.90;3.42;;;14.50;28.80;;;;;;6068171;22;45497;-51
2024/01/10 01:43:24;;;;;;;6.85;3.78;;;14.40;29.00;;;;;;6068466;22;45368;-51
2024/01/10 01:48:50;;;;;;;9.05;3.78;;;14.40;28.40;;;;;;6061566;22;45349;-51
2024/01/10 01:51:37;;;;;;;6.78;3.70;;;14.40;28.40;;;;;;6090638;22;45381;-51
2024/01/10 01:54:21;;;;;;;6.97;3.33;;;14.40;28.10;;;;;;6067380;22;45286;-51
2024/01/10 01:57:16;;;;;;;8.80;3.55;;;14.40;28.40;;;;;;6095505;22;45372;-51
2024/01/10 01:59:44;;;;;;;6.88;3.58;;;14.40;28.50;;;;;;6078918;22;45209;-51
2024/01/10 02:02:30;;;;;;;6.97;3.53;;;14.40;28.00;;;;;;6082395;22;45295;-51
2024/01/10 02:04:56;;;;;;;7.10;3.35;;;14.30;28.10;;;;;;6075235;22;45144;-52
2024/01/10 02:07:24;;;;;;;6.07;3.45;;;14.30;28.00;;;;;;6057521;22;47510;-51
2024/01/10 02:10:21;;;;;;;10.73;3.70;;;14.30;27.40;;;;;;6111821;22;45422;-51
2024/01/10 02:13:15;;;;;;;5.60;3.25;;;14.30;27.30;;;;;;6159496;22;45347;-51
2024/01/10 02:15:42;;;;;;;6.45;3.63;;;14.30;27.90;;;;;;6060170;22;45350;-51
2024/01/10 02:18:27;;;;;;;7.85;3.47;;;14.30;28.20;;;;;;6091598;22;45329;-52
2024/01/10 02:23:35;;;;;;;6.75;3.35;;;14.30;27.30;;;;;;6062596;22;45622;-51
2024/01/10 02:26:29;;;;;;;5.85;3.38;;;14.30;27.70;;;;;;6068712;22;45242;-51
2024/01/10 02:29:10;;;;;;;8.85;3.60;;;14.30;27.90;;;;;;6084611;22;46946;-51
2024/01/10 02:31:54;;;;;;;5.15;3.40;;;14.30;27.30;;;;;;6089081;22;45375;-51
2024/01/10 02:34:45;;;;;;;7.15;3.15;;;14.30;27.10;;;;;;6069849;22;45348;-51
2024/01/10 02:37:12;;;;;;;8.77;3.72;;;14.30;27.50;;;;;;6061275;22;45331;-51
2024/01/10 02:40:03;;;;;;;7.65;4.50;;;14.30;27.30;;;;;;6100589;22;45431;-51
2024/01/10 02:42:59;;;;;;;10.35;4.05;;;14.30;27.50;;;;;;6081199;22;45370;-51
2024/01/10 02:45:44;;;;;;;5.68;3.42;;;14.30;27.80;;;;;;6045000;22;45306;-51
2024/01/10 02:48:31;;;;;;;7.13;3.88;;;14.30;27.20;;;;;;6073773;22;45253;-51
2024/01/10 02:51:21;;;;;;;6.20;3.53;;;14.30;26.80;;;;;;6050637;22;46428;-51
2024/01/10 02:53:47;;;;;;;7.00;3.55;;;14.30;27.20;;;;;;6081885;22;45289;-51
2024/01/10 02:56:16;;;;;;;8.75;4.22;;;14.30;27.00;;;;;;6082691;22;44799;-51
2024/01/10 02:59:17;;;;;;;6.05;3.45;;;14.30;27.10;;;;;;6069741;22;45299;-51
2024/01/10 03:02:18;;;;;;;6.75;3.67;;;14.30;27.10;;;;;;6084323;22;46111;-51
2024/01/10 03:05:12;;;;;;;6.93;3.75;;;14.30;27.10;;;;;;6108579;22;45208;-51
2024/01/10 03:08:06;;;;;;;7.47;3.92;;;14.30;26.80;;;;;;6087571;22;45427;-51
2024/01/10 03:10:33;;;;;;;10.95;3.75;;;14.30;26.80;;;;;;6056888;22;45454;-51
2024/01/10 03:13:28;;;;;;;6.15;3.50;;;14.30;26.50;;;;;;6108161;22;45085;-51
2024/01/10 03:16:04;;;;;;;5.38;3.60;;;14.30;27.00;;;;;;6082683;22;45327;-51
2024/01/10 03:18:31;;;;;;;7.07;3.50;;;14.30;27.10;;;;;;6065257;22;45145;-51
2024/01/10 03:21:22;;;;;;;6.03;3.50;;;14.30;26.40;;;;;;6043221;22;45105;-51
2024/01/10 03:24:26;;;;;;;8.45;3.20;;;14.30;26.90;;;;;;6060155;22;45478;-51
2024/01/10 03:26:59;;;;;;;6.00;3.25;;;14.30;26.70;;;;;;6037672;22;45783;-51
2024/01/10 03:29:38;;;;;;;6.55;3.40;;;14.20;26.20;;;;;;6100959;22;45299;-51
2024/01/10 03:32:22;;;;;;;6.00;3.38;;;14.20;26.30;;;;;;6051534;22;45241;-51
2024/01/10 03:35:17;;;;;;;5.90;3.53;;;14.20;26.30;;;;;;6089716;22;45403;-51
2024/01/10 03:37:45;;;;;;;7.72;4.10;;;14.20;26.80;;;;;;6069682;22;45339;-51
2024/01/10 03:40:18;;;;;;;7.25;3.75;;;14.20;26.70;;;;;;6051440;22;45171;-51
2024/01/10 03:42:54;;;;;;;5.70;3.03;;;14.20;26.90;;;;;;6090472;22;45084;-51
2024/01/10 03:45:47;;;;;;;6.70;3.35;;;14.30;26.60;;;;;;6120259;22;46397;-51
2024/01/10 03:48:16;;;;;;;6.40;3.47;;;14.20;26.70;;;;;;6073512;22;44762;-52
2024/01/10 03:51:11;;;;;;;6.80;3.00;;;14.20;26.30;;;;;;6069340;22;45398;-51
2024/01/10 03:54:00;;;;;;;6.53;3.42;;;14.30;26.30;;;;;;6098240;22;45314;-51
2024/01/10 03:56:49;;;;;;;7.13;3.88;;;14.20;26.80;;;;;;6123865;22;46318;-51
2024/01/10 03:59:50;;;;;;;8.10;3.35;;;14.20;26.10;;;;;;6092344;22;45222;-51
2024/01/10 04:02:36;;;;;;;6.50;3.53;;;14.20;26.20;;;;;;6088564;22;45115;-52
2024/01/10 04:05:07;;;;;;;7.28;3.40;;;14.20;25.90;;;;;;6065536;22;45525;-51
2024/01/10 04:07:53;;;;;;;5.97;3.47;;;14.20;27.30;;;;;;6047011;22;45227;-51
2024/01/10 04:10:48;;;;;;;4.43;3.13;;;14.30;32.20;;;;;;6087481;22;45033;-51
2024/01/10 04:13:16;;;;;;;6.93;3.47;;;14.30;29.40;;;;;;6094290;22;45804;-51
2024/01/10 04:16:13;;;;;;;6.93;3.70;;;14.30;28.20;;;;;;6081362;22;45299;-51
2024/01/10 04:18:41;;;;;;;7.53;3.47;;;14.30;27.90;;;;;;6079657;22;46208;-51
2024/01/10 04:21:31;;;;;;;5.00;3.17;;;14.30;27.60;;;;;;6081022;22;45090;-52
2024/01/10 04:24:20;;;;;;;5.40;3.60;;;14.30;27.20;;;;;;6078643;22;45270;-52
2024/01/10 04:27:11;;;;;;;6.43;3.65;;;14.20;26.90;;;;;;6076016;22;45287;-52
2024/01/10 04:29:54;;;;;;;5.30;3.03;;;14.30;27.20;;;;;;6066958;22;45563;-52
2024/01/10 04:32:39;;;;;;;5.68;3.30;;;14.20;26.20;;;;;;6072477;22;45251;-52
2024/01/10 04:35:07;;;;;;;4.72;2.97;;;14.20;26.10;;;;;;6089840;22;45202;-52
2024/01/10 04:37:47;;;;;;;5.95;3.50;;;14.20;26.30;;;;;;6079231;22;45208;-52
2024/01/10 04:40:14;;;;;;;6.60;3.78;;;14.20;26.60;;;;;;6065834;22;45328;-52
2024/01/10 04:43:07;;;;;;;7.18;3.40;;;14.20;25.90;;;;;;6087398;22;44991;-52
2024/01/10 04:45:42;;;;;;;6.97;3.78;;;14.20;26.80;;;;;;6074627;22;45399;-52
2024/01/10 04:48:38;;;;;;;8.32;3.83;;;14.20;25.80;;;;;;6100308;22;45343;-52
2024/01/10 04:51:28;;;;;;;6.80;3.40;;;14.20;26.10;;;;;;6064724;22;46307;-52
2024/01/10 04:54:13;;;;;;;6.00;3.65;;;14.20;26.30;;;;;;6094245;22;45292;-53
2024/01/10 04:57:03;;;;;;;6.22;3.40;;;14.20;26.10;;;;;;6072304;22;45227;-52
2024/01/10 04:59:43;;;;;;;5.95;3.42;;;14.20;25.90;;;;;;6087008;22;45099;-52
2024/01/10 05:02:31;;;;;;;7.15;3.38;;;14.20;25.90;;;;;;6054357;22;45216;-52
2024/01/10 05:05:35;;;;;;;6.35;3.13;;;14.20;25.70;;;;;;6096963;22;45172;-52
2024/01/10 05:08:28;;;;;;;8.30;3.17;;;14.20;25.90;;;;;;6099092;22;45458;-52
2024/01/10 05:11:07;;;;;;;5.75;3.20;;;14.20;25.60;;;;;;6090322;22;45413;-52
2024/01/10 05:13:35;;;;;;;5.70;2.92;;;14.20;25.50;;;;;;6079083;22;45200;-52
2024/01/10 05:16:18;;;;;;;6.57;3.30;;;14.10;26.00;;;;;;6078446;22;45161;-52
2024/01/10 05:18:46;;;;;;;5.38;3.13;;;14.20;25.40;;;;;;6057795;22;45312;-52
2024/01/10 05:21:15;;;;;;;5.07;3.30;;;14.20;25.60;;;;;;6074899;22;45373;-52
2024/01/10 05:23:49;;;;;;;5.70;3.47;;;14.20;25.50;;;;;;6068104;22;46028;-52
2024/01/10 05:26:32;;;;;;;6.28;3.63;;;14.20;26.20;;;;;;6067850;22;45297;-52
2024/01/10 05:29:23;;;;;;;7.53;3.67;;;14.20;25.50;;;;;;6103403;22;45301;-52
2024/01/10 05:31:52;;;;;;;6.70;3.72;;;14.20;25.60;;;;;;6075057;22;45199;-52
2024/01/10 05:34:33;;;;;;;5.20;3.42;;;14.20;25.40;;;;;;6088384;22;46529;-52
2024/01/10 05:37:35;;;;;;;5.93;4.00;;;14.20;25.90;;;;;;6086356;22;45065;-51
2024/01/10 05:40:08;;;;;;;5.13;3.35;;;14.00;26.20;;;;;;6081010;22;45170;-51
2024/01/10 05:42:46;;;;;;;6.32;3.65;;;14.10;25.70;;;;;;6101306;22;45419;-51
2024/01/10 05:45:35;;;;;;;5.80;3.40;;;14.10;25.70;;;;;;6070381;22;46927;-51
2024/01/10 05:48:28;;;;;;;6.68;3.83;;;14.10;25.80;;;;;;6099633;22;45198;-51
2024/01/10 05:50:58;;;;;;;5.57;3.42;;;14.10;25.90;;;;;;6065863;22;45116;-51
2024/01/10 05:56:29;;;;;;;7.53;3.97;;;14.10;25.50;;;;;;6083949;22;45475;-51
2024/01/10 05:59:18;;;;;;;6.38;3.67;;;14.10;25.40;;;;;;6061359;22;45368;-51
2024/01/10 06:02:06;;;;;;;6.47;3.55;;;14.10;26.40;;;;;;6058856;22;45400;-51
2024/01/10 06:04:52;;;;;;;6.38;3.67;;;14.10;27.60;;;;;;6071812;22;45359;-51
2024/01/10 06:07:19;;;;;;;8.23;3.60;;;14.10;27.90;;;;;;6087110;22;45477;-51
2024/01/10 06:09:48;;;;;;;6.45;3.50;;;14.20;27.80;;;;;;6088659;22;45115;-51
2024/01/10 06:12:35;;;;;;;7.28;3.42;;;14.20;27.90;;;;;;6097073;22;45085;-51
2024/01/10 06:15:36;;;;;;;5.88;3.45;;;14.20;27.70;;;;;;6090093;22;45711;-51
2024/01/10 06:18:06;;;;;;;6.03;3.25;;;14.20;28.10;;;;;;6049183;22;45850;-51
2024/01/10 06:20:54;;;;;;;8.18;3.63;;;14.20;27.80;;;;;;6062112;22;45425;-51
2024/01/10 06:23:34;;;;;;;6.95;3.58;;;14.20;27.70;;;;;;6064299;22;44839;-51
2024/01/10 06:26:06;;;;;;;6.07;3.78;;;14.20;27.00;;;;;;6080168;22;45072;-51
2024/01/10 06:28:34;;;;;;;7.25;4.35;;;14.20;26.80;;;;;;6090952;22;46022;-52
2024/01/10 06:34:12;;;;;;;6.55;4.28;;;14.10;25.90;;;;;;6055567;22;45185;-52
2024/01/10 06:50:11;;;;;;;5.63;3.50;;;14.10;25.20;;;;;;6019354;22;1725227;-51
2024/01/10 06:52:38;;;;;;;6.03;3.72;;;14.10;25.40;;;;;;5966069;22;45127;-51
2024/01/10 06:55:33;;;;;;;6.68;3.75;;;14.10;25.50;;;;;;5998378;22;45286;-51
2024/01/10 06:57:59;;;;;;;6.60;3.58;;;14.00;25.60;;;;;;5997781;22;44904;-51
2024/01/10 07:00:50;;;;;;;7.13;3.60;;;14.00;25.30;;;;;;5988550;22;45895;-51
2024/01/10 07:03:19;;;;;;;6.32;3.80;;;14.00;25.30;;;;;;5978762;22;45221;-51
2024/01/10 07:05:50;;;;;;;7.50;4.28;;;14.00;25.20;;;;;;5976514;22;45289;-51
2024/01/10 07:08:35;;;;;;;8.52;4.20;;;14.00;25.10;;;;;;5978270;22;45242;-52
2024/01/10 07:11:01;;;;;;;24.58;5.35;;;14.00;26.70;;;;;;5983363;22;45333;-51
2024/01/10 07:13:40;;;;;;;14.55;4.25;;;14.00;27.50;;;;;;5987213;22;45462;-51
2024/01/10 07:16:32;;;;;;;12.13;3.70;;;14.00;26.60;;;;;;6006894;22;45007;-51
2024/01/10 07:19:24;;;;;;;11.40;4.43;;;14.00;25.70;;;;;;5982743;22;45103;-52
2024/01/10 07:22:01;;;;;;;11.77;4.30;;;14.00;26.50;;;;;;5977051;22;46170;-52
2024/01/10 07:24:28;;;;;;;7.07;3.47;;;14.10;27.40;;;;;;5987784;22;45383;-52
2024/01/10 07:27:06;;;;;;;9.38;4.40;;;14.10;27.90;;;;;;5993286;22;45249;-52
2024/01/10 07:30:00;;;;;;;6.00;3.50;;;14.10;28.10;;;;;;6016910;22;45225;-51
2024/01/10 07:33:04;;;;;;;7.20;4.03;;;14.20;28.20;;;;;;5992596;22;46167;-52
2024/01/10 07:35:43;;;;;;;6.97;3.50;;;14.20;28.30;;;;;;5989992;22;45447;-51
2024/01/10 07:38:21;;;;;;;6.15;3.72;;;14.20;28.30;;;;;;6004604;22;45069;-52
2024/01/10 07:41:21;;;;;;;9.18;3.90;;;14.20;28.40;;;;;;5993633;22;45256;-52
2024/01/10 07:44:14;;;;;;;6.95;3.75;;;14.20;28.80;;;;;;6003810;22;45985;-52
2024/01/10 07:46:55;;;;;;;6.85;3.85;;;14.20;28.60;;;;;;5976649;22;45459;-52
2024/01/10 07:49:24;;;;;;;6.53;3.75;;;14.20;27.90;;;;;;5993583;22;45028;-51
2024/01/10 07:52:22;;;;;;;7.68;3.92;;;14.20;28.40;;;;;;5979703;22;45413;-52
2024/01/10 07:55:18;;;;;;;7.25;4.22;;;14.20;28.60;;;;;;5981133;22;46061;-52
2024/01/10 07:58:15;;;;;;;7.25;3.63;;;14.20;28.60;;;;;;6005326;22;44972;-52
2024/01/10 08:01:04;;;;;;;6.47;3.67;;;14.20;29.00;;;;;;5972397;22;45250;-52
2024/01/10 08:03:31;;;;;;;7.55;3.70;;;14.20;28.90;;;;;;5966642;22;45298;-52
2024/01/10 08:06:00;;;;;;;7.10;3.85;;;14.30;28.70;;;;;;5974967;22;45671;-51
2024/01/10 08:08:56;;;;;;;8.75;3.85;;;14.30;28.70;;;;;;5984773;22;45179;-52
2024/01/10 08:11:38;;;;;;;7.00;3.97;;;14.30;28.80;;;;;;5978953;22;45178;-51
2024/01/10 08:14:08;;;;;;;9.85;4.15;;;14.30;28.70;;;;;;5959083;22;45303;-52
2024/01/10 08:16:41;;;;;;;6.47;3.78;;;14.30;28.80;;;;;;5974351;22;46927;-51
2024/01/10 08:19:14;;;;;;;6.00;3.53;;;14.30;28.80;;;;;;5973087;22;45081;-51
2024/01/10 08:21:41;;;;;;;7.35;3.85;;;14.30;28.70;;;;;;5976789;22;44949;-52
2024/01/10 08:24:08;;;;;;;6.28;3.85;;;14.30;28.60;;;;;;5965459;22;45351;-51
2024/01/10 08:27:14;;;;;;;7.45;3.97;;;14.30;28.80;;;;;;5960535;22;46120;-51
2024/01/10 08:36:53;;;;;;;9.02;4.30;;;14.30;29.10;;;;;;5938138;22;45370;-51
2024/01/10 08:39:30;;;;;;;7.53;3.92;;;14.30;29.10;;;;;;5978835;22;45431;-51
2024/01/10 08:42:51;;;;;;;6.32;3.90;;;14.30;29.30;;;;;;5956825;22;45366;-51
2024/01/10 08:45:51;;;;;;;7.65;4.28;;;14.30;29.20;;;;;;5983574;22;45638;-51
2024/01/10 08:48:20;;;;;;;8.02;4.50;;;14.30;29.20;;;;;;5969310;22;45422;-51
2024/01/10 08:51:16;;;;;;;8.75;4.07;;;14.30;29.20;;;;;;6002726;22;45529;-51
2024/01/10 08:53:53;;;;;;;7.53;4.30;;;14.30;29.30;;;;;;5957398;22;44802;-51
2024/01/10 08:56:21;;;;;;;7.85;4.15;;;14.30;29.40;;;;;;5975681;22;45078;-52
2024/01/10 08:59:20;;;;;;;7.05;4.05;;;14.30;29.20;;;;;;5963359;22;45119;-51
2024/01/10 09:02:09;;;;;;;6.70;3.53;;;14.30;29.40;;;;;;5986727;22;45944;-51
2024/01/10 09:04:39;;;;;;;6.50;4.05;;;14.30;29.30;;;;;;5972503;22;45020;-51
2024/01/10 09:07:33;;;;;;;8.63;4.13;;;14.30;29.20;;;;;;5962232;22;45220;-51
2024/01/10 09:10:00;;;;;;;9.30;4.55;;;14.30;29.40;;;;;;5998158;22;45039;-51
2024/01/10 09:12:53;;;;;;;7.03;3.83;;;14.30;29.20;;;;;;5994782;22;46169;-51
2024/01/10 09:15:20;;;;;;;7.60;4.10;;;14.30;29.60;;;;;;5965476;22;45145;-51
2024/01/10 09:17:47;;;;;;;6.50;4.20;;;14.30;29.50;;;;;;5991671;22;45321;-51
2024/01/10 09:20:38;;;;;;;8.27;4.55;;;14.30;29.40;;;;;;5997287;22;45406;-51
2024/01/10 09:23:28;;;;;;;6.75;3.90;;;14.30;29.50;;;;;;5975898;22;45471;-51
2024/01/10 09:25:57;;;;;;;7.85;4.40;;;14.30;29.40;;;;;;5992232;22;45104;-51
2024/01/10 09:28:45;;;;;;;9.32;4.30;;;14.30;29.50;;;;;;5964998;22;45190;-51
2024/01/10 09:31:31;;;;;;;7.82;4.10;;;14.30;29.30;;;;;;5973624;22;45330;-51
2024/01/10 09:34:19;;;;;;;7.30;4.18;;;14.30;29.40;;;;;;5988845;22;46251;-51
2024/01/10 09:37:05;;;;;;;7.28;3.78;;;14.30;29.30;;;;;;5955405;22;45256;-51
2024/01/10 09:39:56;;;;;;;7.35;4.38;;;14.30;29.30;;;;;;6000117;22;45199;-51
2024/01/10 09:42:25;;;;;;;5.93;3.47;;;14.30;29.40;;;;;;5982959;22;45180;-51
2024/01/10 09:45:03;;;;;;;8.35;4.47;;;14.30;29.40;;;;;;5973149;22;45746;-51
2024/01/10 09:47:31;;;;;;;8.60;3.97;;;14.30;29.30;;;;;;5990525;22;45956;-52
2024/01/10 09:54:06;;;;;;;7.90;4.25;;;14.30;28.80;;;;;;5991837;22;45999;-52
2024/01/10 09:56:43;;;;;;;8.52;4.43;;;14.30;29.10;;;;;;5998260;22;45517;-51
2024/01/10 09:59:31;;;;;;;7.38;4.43;;;14.30;28.80;;;;;;5993959;22;45289;-51
2024/01/10 10:18:19;;;;;;;9.40;5.10;;;14.60;29.40;;;;;;6257700;22;1642562;-51
2024/01/10 10:20:47;;;;;;;6.47;4.20;;;14.50;28.90;;;;;;6145028;22;44683;-51
2024/01/10 10:23:17;;;;;;;8.32;4.10;;;14.50;29.00;;;;;;6125850;22;44789;-51
2024/01/10 10:25:59;;;;;;;9.13;4.35;;;14.50;29.10;;;;;;6142773;22;46281;-51
2024/01/10 10:28:52;;;;;;;9.82;5.38;;;14.50;29.20;;;;;;6133870;22;44843;-51
2024/01/10 10:31:20;;;;;;;8.63;4.90;;;14.60;29.80;;;;;;6121526;22;44676;-51
2024/01/10 10:34:21;;;;;;;8.45;4.70;;;14.90;29.80;;;;;;6148285;22;44718;-51
2024/01/10 10:36:50;;;;;;;8.23;4.53;;;15.20;29.50;;;;;;6113301;22;46192;-51
2024/01/10 10:39:17;;;;;;;10.38;4.90;;;15.40;29.40;;;;;;6120166;22;44708;-51
2024/01/10 10:42:01;;;;;;;7.00;3.95;;;15.50;29.40;;;;;;6121164;22;44680;-51
2024/01/10 10:44:32;;;;;;;7.88;4.55;;;15.60;29.40;;;;;;6130675;22;44552;-51
2024/01/10 10:50:29;;;;;;;9.60;4.53;;;15.80;29.40;;;;;;6066080;22;44742;-51
2024/01/10 10:53:12;;;;;;;7.07;4.13;;;15.90;29.30;;;;;;6119856;22;44663;-51
2024/01/10 10:55:42;;;;;;;8.15;4.30;;;15.90;29.20;;;;;;6114997;22;44606;-51
2024/01/10 10:58:22;;;;;;;6.95;4.18;;;16.00;29.20;;;;;;6146581;22;45990;-51
2024/01/10 11:00:50;;;;;;;7.70;4.20;;;15.70;29.30;;;;;;6120112;22;44838;-51
2024/01/10 11:03:44;;;;;;;7.35;4.30;;;15.30;29.10;;;;;;6145835;22;44684;-51
2024/01/10 11:06:18;;;;;;;8.18;4.05;;;15.10;29.00;;;;;;6125617;22;44744;-51
2024/01/10 11:09:15;;;;;;;6.47;3.70;;;14.90;29.20;;;;;;6114545;22;45998;-51
2024/01/10 11:12:02;;;;;;;9.25;4.32;;;14.80;29.20;;;;;;6138132;22;44690;-51
2024/01/10 11:14:50;;;;;;;8.52;4.10;;;14.80;29.20;;;;;;6119537;22;45261;-51
2024/01/10 11:18:18;;;;;;;6.63;3.92;;;14.80;29.30;;;;;;6128674;22;44769;-51
2024/01/10 11:21:38;;;;;;;7.53;3.90;;;14.70;29.60;;;;;;6136613;22;46345;-51
2024/01/10 11:24:19;;;;;;;8.25;4.40;;;14.80;29.80;;;;;;6113997;22;44736;-51
2024/01/10 11:26:46;;;;;;;9.48;4.65;;;15.10;29.60;;;;;;6106530;22;44774;-51
2024/01/10 11:29:16;;;;;;;7.80;4.53;;;15.50;29.50;;;;;;6105444;22;44788;-51
2024/01/10 11:31:51;;;;;;;7.57;4.00;;;15.50;29.40;;;;;;6090884;22;46382;-51
2024/01/10 11:34:18;;;;;;;7.38;4.35;;;15.30;29.30;;;;;;6069149;22;44907;-51
2024/01/10 11:37:24;;;;;;;7.93;4.20;;;15.10;28.20;;;;;;6080217;22;44725;-51
2024/01/10 11:39:53;;;;;;;7.15;4.15;;;14.90;27.80;;;;;;6060244;22;44897;-51
2024/01/10 11:42:52;;;;;;;7.63;4.45;;;14.80;27.30;;;;;;6077507;22;45252;-51
2024/01/10 11:45:52;;;;;;;6.30;3.92;;;14.70;27.60;;;;;;6060855;22;44847;-51
2024/01/10 11:48:54;;;;;;;7.05;4.07;;;14.80;31.80;;;;;;6075429;22;44786;-51
2024/01/10 11:51:57;;;;;;;7.45;4.50;;;14.70;29.70;;;;;;6057038;22;44689;-51
2024/01/10 11:54:50;;;;;;;7.53;4.50;;;14.80;29.50;;;;;;6041034;22;45415;-51
2024/01/10 11:57:21;;;;;;;8.27;4.95;;;15.00;29.00;;;;;;6078728;22;45086;-51
2024/01/10 11:59:52;;;;;;;8.63;4.97;;;15.10;28.90;;;;;;6081148;22;44828;-51
2024/01/10 12:02:19;;;;;;;8.88;4.90;;;15.20;28.50;;;;;;6088215;22;44870;-51
2024/01/10 12:04:47;;;;;;;8.27;4.72;;;15.40;28.60;;;;;;6064046;22;46164;-51
2024/01/10 12:07:27;;;;;;;9.55;4.70;;;15.40;28.40;;;;;;6079031;22;45041;-51
2024/01/10 12:10:14;;;;;;;8.27;4.97;;;15.50;28.00;;;;;;6069777;22;44767;-51
2024/01/10 12:12:40;;;;;;;7.75;4.75;;;15.50;28.10;;;;;;6081953;22;44785;-51
2024/01/10 12:15:09;;;;;;;9.50;5.63;;;15.60;27.90;;;;;;6084039;22;45137;-51
2024/01/10 12:17:46;;;;;;;10.02;5.65;;;15.70;27.90;;;;;;6092075;22;44905;-51
2024/01/10 12:20:25;;;;;;;8.23;4.90;;;15.70;27.80;;;;;;6074644;22;44739;-51
2024/01/10 12:22:52;;;;;;;8.85;5.22;;;15.80;27.80;;;;;;6058662;22;44840;-51
2024/01/10 12:25:22;;;;;;;10.48;5.13;;;15.80;27.80;;;;;;6078354;22;45758;-51
2024/01/10 12:27:56;;;;;;;11.45;5.70;;;15.90;27.60;;;;;;6070795;22;44817;-51
2024/01/10 12:30:28;;;;;;;9.05;4.82;;;15.90;27.60;;;;;;6059203;22;44850;-51
2024/01/10 12:33:06;;;;;;;11.18;5.22;;;16.00;27.50;;;;;;6075951;22;44953;-51
2024/01/10 12:35:34;;;;;;;9.07;5.15;;;16.00;27.60;;;;;;6070720;22;45685;-51
2024/01/10 12:38:04;;;;;;;10.57;5.05;;;16.10;27.60;;;;;;6052941;22;44730;-51
2024/01/10 12:40:36;;;;;;;9.55;5.43;;;16.10;27.50;;;;;;6064923;22;44816;-51
2024/01/10 12:43:05;;;;;;;8.90;4.97;;;15.70;27.20;;;;;;6072313;22;44699;-51
2024/01/10 12:45:33;;;;;;;7.75;5.00;;;15.50;27.80;;;;;;6080922;22;46267;-51
2024/01/10 12:48:02;;;;;;;11.80;5.05;;;15.30;27.80;;;;;;6062691;22;44696;-51
2024/01/10 12:50:34;;;;;;;9.27;4.97;;;15.20;27.90;;;;;;6067020;22;44690;-51
2024/01/10 12:53:09;;;;;;;9.18;5.35;;;15.10;28.00;;;;;;6065518;22;44991;-51
2024/01/10 12:56:03;;;;;;;10.13;5.13;;;15.00;28.00;;;;;;6068575;22;45389;-51
2024/01/10 12:58:36;;;;;;;8.88;5.30;;;14.90;27.80;;;;;;6110394;22;44644;-51
2024/01/10 13:01:06;;;;;;;9.10;5.13;;;15.00;27.90;;;;;;6066718;22;44749;-51
2024/01/10 13:04:00;;;;;;;10.57;5.40;;;14.90;27.90;;;;;;6067533;22;44905;-51
2024/01/10 13:06:28;;;;;;;8.02;5.10;;;14.90;28.50;;;;;;6084873;22;46182;-51
2024/01/10 13:08:54;;;;;;;12.40;5.10;;;14.70;28.80;;;;;;6075845;22;45084;-51
2024/01/10 13:11:24;;;;;;;11.77;5.75;;;14.60;29.30;;;;;;6063726;22;44720;-51
2024/01/10 13:14:11;;;;;;;10.95;5.85;;;14.70;28.70;;;;;;6087355;22;44892;-51
2024/01/10 13:16:41;;;;;;;12.65;5.93;;;14.70;28.30;;;;;;6079783;22;46225;-51
2024/01/10 13:19:11;;;;;;;11.10;6.22;;;14.60;28.30;;;;;;6069508;22;44735;-51
2024/01/10 13:21:42;;;;;;;10.02;5.78;;;14.50;28.20;;;;;;6069786;22;44713;-51
2024/01/10 13:24:09;;;;;;;9.65;5.97;;;14.40;27.90;;;;;;6070952;22;45008;-51
2024/01/10 13:29:20;;;;;;;11.02;6.22;;;14.20;27.90;;;;;;6056885;22;44781;-51
2024/01/10 13:31:59;;;;;;;28.50;7.15;;;14.20;28.10;;;;;;6083016;22;44683;-51
2024/01/10 13:34:26;;;;;;;10.57;5.72;;;14.20;29.50;;;;;;6069775;22;44869;-51
2024/01/10 13:36:55;;;;;;;12.75;6.70;;;14.20;28.40;;;;;;6077641;22;45317;-51
2024/01/10 13:39:23;;;;;;;14.30;6.45;;;14.20;28.30;;;;;;6092887;22;44942;-51
2024/01/10 13:42:06;;;;;;;12.80;6.40;;;14.20;28.10;;;;;;6097549;22;44778;-51
2024/01/10 13:44:36;;;;;;;12.35;6.07;;;14.10;28.00;;;;;;6075700;22;44971;-51
2024/01/10 13:47:08;;;;;;;10.15;5.47;;;14.10;28.20;;;;;;6062911;22;47217;-51
2024/01/10 13:49:38;;;;;;;11.45;5.95;;;14.10;28.20;;;;;;6067333;22;45084;-51
2024/01/10 13:52:06;;;;;;;10.45;5.55;;;14.00;28.10;;;;;;6077420;22;44717;-51
2024/01/10 13:54:36;;;;;;;16.85;6.43;;;14.00;28.10;;;;;;6068277;22;44929;-51
2024/01/10 13:57:18;;;;;;;11.68;6.75;;;13.90;28.00;;;;;;6083154;22;46287;-51
2024/01/10 14:02:42;;;;;;;11.57;6.53;;;13.90;28.00;;;;;;6073986;22;45117;-51
2024/01/10 14:05:36;;;;;;;10.85;6.40;;;13.80;27.90;;;;;;6078783;22;44837;-51
2024/01/10 14:08:04;;;;;;;10.95;5.90;;;13.80;28.10;;;;;;6087467;22;45507;-51
2024/01/10 14:10:34;;;;;;;11.18;6.30;;;13.80;28.10;;;;;;6088905;22;44657;-51
2024/01/10 14:16:02;;;;;;;12.52;6.78;;;13.80;28.10;;;;;;6060541;22;44837;-51
2024/01/10 14:18:37;;;;;;;9.13;5.65;;;13.70;28.10;;;;;;6078500;22;46039;-51
2024/01/10 14:21:09;;;;;;;13.38;6.55;;;13.70;28.20;;;;;;6079617;22;44818;-51
2024/01/10 14:23:50;;;;;;;12.30;7.00;;;13.70;28.20;;;;;;6081163;22;44822;-51
2024/01/10 14:26:29;;;;;;;14.38;7.05;;;13.70;28.00;;;;;;6071268;22;44779;-51
2024/01/10 14:32:13;;;;;;;11.70;6.38;;;13.60;28.10;;;;;;6032900;22;44748;-50
2024/01/10 14:34:46;;;;;;;13.38;6.70;;;13.60;28.20;;;;;;6068181;22;44781;-51
2024/01/10 14:37:16;;;;;;;10.63;6.32;;;13.60;28.20;;;;;;6070106;22;44906;-50
2024/01/10 14:39:44;;;;;;;13.73;7.00;;;13.50;28.20;;;;;;6078410;22;45986;-51
2024/01/10 14:42:24;;;;;;;12.15;6.00;;;13.50;28.30;;;;;;6067496;22;44896;-51
2024/01/10 14:45:08;;;;;;;12.63;6.57;;;13.50;28.30;;;;;;6078831;22;44815;-51
2024/01/10 14:47:35;;;;;;;12.35;6.60;;;13.50;28.30;;;;;;6074273;22;44793;-51
2024/01/10 14:50:03;;;;;;;12.73;6.20;;;13.50;29.20;;;;;;6073741;22;45903;-51
2024/01/10 14:52:40;;;;;;;11.63;6.60;;;13.60;29.10;;;;;;6080073;22;44668;-51
2024/01/10 14:55:09;;;;;;;12.40;6.70;;;13.60;28.90;;;;;;6073527;22;44893;-50
2024/01/10 14:57:42;;;;;;;14.50;6.28;;;13.50;28.80;;;;;;6072864;22;44975;-51
2024/01/10 15:00:27;;;;;;;12.73;7.28;;;13.50;28.90;;;;;;6062887;22;46620;-51
2024/01/10 15:02:54;;;;;;;14.32;6.55;;;13.40;28.70;;;;;;6068840;22;44765;-51
2024/01/10 15:05:25;;;;;;;11.18;6.18;;;13.50;28.90;;;;;;6071666;22;45118;-51
2024/01/10 15:07:52;;;;;;;10.88;6.22;;;13.40;28.80;;;;;;6096540;22;44910;-51